sensor_id;sensor_type;location;lat;lon;timestamp;P1;durP1;ratioP1;P2;durP2;ratioP2
13641;SDS011;6894;52.196;9.904;2022-12-18T00:00:43;9.47;;;6.23;;
13641;SDS011;6894;52.196;9.904;2022-12-18T00:03:11;11.90;;;7.47;;
13641;SDS011;6894;52.196;9.904;2022-12-18T00:05:45;13.73;;;8.40;;
13641;SDS011;6894;52.196;9.904;2022-12-18T00:08:12;14.50;;;7.50;;
13641;SDS011;6894;52.196;9.904;2022-12-18T00:10:39;10.63;;;6.93;;
13641;SDS011;6894;52.196;9.904;2022-12-18T00:13:06;10.93;;;6.43;;
13641;SDS011;6894;52.196;9.904;2022-12-18T00:15:33;9.83;;;6.60;;
13641;SDS011;6894;52.196;9.904;2022-12-18T00:18:01;10.97;;;7.07;;
13641;SDS011;6894;52.196;9.904;2022-12-18T00:20:28;11.63;;;6.47;;
13641;SDS011;6894;52.196;9.904;2022-12-18T00:22:54;11.57;;;7.27;;
13641;SDS011;6894;52.196;9.904;2022-12-18T00:25:21;11.80;;;7.00;;
13641;SDS011;6894;52.196;9.904;2022-12-18T00:27:48;11.53;;;7.00;;
13641;SDS011;6894;52.196;9.904;2022-12-18T00:30:15;9.40;;;6.53;;
13641;SDS011;6894;52.196;9.904;2022-12-18T00:32:42;9.07;;;6.90;;
13641;SDS011;6894;52.196;9.904;2022-12-18T00:35:10;12.80;;;8.10;;
13641;SDS011;6894;52.196;9.904;2022-12-18T00:37:37;12.13;;;7.53;;
13641;SDS011;6894;52.196;9.904;2022-12-18T00:40:04;11.90;;;6.57;;
13641;SDS011;6894;52.196;9.904;2022-12-18T00:42:35;9.40;;;6.30;;
13641;SDS011;6894;52.196;9.904;2022-12-18T00:45:19;14.33;;;6.97;;
13641;SDS011;6894;52.196;9.904;2022-12-18T00:47:46;10.33;;;6.40;;
13641;SDS011;6894;52.196;9.904;2022-12-18T00:50:14;10.67;;;6.33;;
13641;SDS011;6894;52.196;9.904;2022-12-18T00:52:41;13.87;;;6.60;;
13641;SDS011;6894;52.196;9.904;2022-12-18T00:55:08;11.27;;;7.13;;
13641;SDS011;6894;52.196;9.904;2022-12-18T00:57:35;11.13;;;6.90;;
13641;SDS011;6894;52.196;9.904;2022-12-18T01:00:02;9.53;;;6.63;;
13641;SDS011;6894;52.196;9.904;2022-12-18T01:02:30;8.43;;;6.10;;
13641;SDS011;6894;52.196;9.904;2022-12-18T01:04:57;8.30;;;6.37;;
13641;SDS011;6894;52.196;9.904;2022-12-18T01:07:25;13.07;;;7.37;;
13641;SDS011;6894;52.196;9.904;2022-12-18T01:09:52;11.33;;;6.47;;
13641;SDS011;6894;52.196;9.904;2022-12-18T01:12:19;12.17;;;7.00;;
13641;SDS011;6894;52.196;9.904;2022-12-18T01:14:46;8.90;;;6.37;;
13641;SDS011;6894;52.196;9.904;2022-12-18T01:17:12;14.53;;;7.00;;
13641;SDS011;6894;52.196;9.904;2022-12-18T01:19:39;13.83;;;7.50;;
13641;SDS011;6894;52.196;9.904;2022-12-18T01:22:06;10.83;;;6.80;;
13641;SDS011;6894;52.196;9.904;2022-12-18T01:24:35;15.53;;;6.97;;
13641;SDS011;6894;52.196;9.904;2022-12-18T01:27:02;12.33;;;7.63;;
13641;SDS011;6894;52.196;9.904;2022-12-18T01:29:28;14.63;;;7.37;;
13641;SDS011;6894;52.196;9.904;2022-12-18T01:31:55;16.50;;;7.33;;
13641;SDS011;6894;52.196;9.904;2022-12-18T01:34:22;13.00;;;8.00;;
13641;SDS011;6894;52.196;9.904;2022-12-18T01:36:49;13.17;;;8.00;;
13641;SDS011;6894;52.196;9.904;2022-12-18T01:39:17;11.17;;;7.67;;
13641;SDS011;6894;52.196;9.904;2022-12-18T01:41:46;9.03;;;6.70;;
13641;SDS011;6894;52.196;9.904;2022-12-18T01:47:35;12.90;;;7.13;;
13641;SDS011;6894;52.196;9.904;2022-12-18T01:50:06;15.00;;;7.77;;
13641;SDS011;6894;52.196;9.904;2022-12-18T01:52:36;14.07;;;7.47;;
13641;SDS011;6894;52.196;9.904;2022-12-18T01:55:07;11.57;;;7.17;;
13641;SDS011;6894;52.196;9.904;2022-12-18T01:57:36;11.90;;;7.43;;
13641;SDS011;6894;52.196;9.904;2022-12-18T02:00:04;12.47;;;8.13;;
13641;SDS011;6894;52.196;9.904;2022-12-18T02:02:34;10.90;;;7.50;;
13641;SDS011;6894;52.196;9.904;2022-12-18T02:05:02;13.10;;;8.00;;
13641;SDS011;6894;52.196;9.904;2022-12-18T02:07:32;12.77;;;7.73;;
13641;SDS011;6894;52.196;9.904;2022-12-18T02:10:10;10.67;;;7.13;;
13641;SDS011;6894;52.196;9.904;2022-12-18T02:12:45;10.93;;;6.90;;
13641;SDS011;6894;52.196;9.904;2022-12-18T02:15:17;10.83;;;6.90;;
13641;SDS011;6894;52.196;9.904;2022-12-18T02:17:52;10.13;;;6.80;;
13641;SDS011;6894;52.196;9.904;2022-12-18T02:20:21;10.87;;;6.30;;
13641;SDS011;6894;52.196;9.904;2022-12-18T02:22:59;10.87;;;7.73;;
13641;SDS011;6894;52.196;9.904;2022-12-18T02:25:38;11.60;;;7.13;;
13641;SDS011;6894;52.196;9.904;2022-12-18T02:28:15;9.80;;;7.50;;
13641;SDS011;6894;52.196;9.904;2022-12-18T02:30:45;12.23;;;7.00;;
13641;SDS011;6894;52.196;9.904;2022-12-18T02:33:15;11.73;;;6.90;;
13641;SDS011;6894;52.196;9.904;2022-12-18T02:35:43;12.20;;;6.80;;
13641;SDS011;6894;52.196;9.904;2022-12-18T02:38:12;10.27;;;7.03;;
13641;SDS011;6894;52.196;9.904;2022-12-18T02:40:41;10.20;;;6.13;;
13641;SDS011;6894;52.196;9.904;2022-12-18T02:43:09;10.60;;;6.60;;
13641;SDS011;6894;52.196;9.904;2022-12-18T02:45:45;13.80;;;7.10;;
13641;SDS011;6894;52.196;9.904;2022-12-18T02:48:13;10.10;;;6.47;;
13641;SDS011;6894;52.196;9.904;2022-12-18T02:50:41;8.50;;;6.57;;
13641;SDS011;6894;52.196;9.904;2022-12-18T02:53:14;12.20;;;6.20;;
13641;SDS011;6894;52.196;9.904;2022-12-18T02:55:48;9.23;;;5.83;;
13641;SDS011;6894;52.196;9.904;2022-12-18T02:58:26;9.90;;;5.73;;
13641;SDS011;6894;52.196;9.904;2022-12-18T03:01:01;10.10;;;6.37;;
13641;SDS011;6894;52.196;9.904;2022-12-18T03:03:33;10.63;;;5.90;;
13641;SDS011;6894;52.196;9.904;2022-12-18T03:06:05;9.90;;;6.30;;
13641;SDS011;6894;52.196;9.904;2022-12-18T03:08:36;10.80;;;6.27;;
13641;SDS011;6894;52.196;9.904;2022-12-18T03:11:07;10.10;;;5.93;;
13641;SDS011;6894;52.196;9.904;2022-12-18T03:13:36;9.80;;;6.07;;
13641;SDS011;6894;52.196;9.904;2022-12-18T03:16:07;9.53;;;6.03;;
13641;SDS011;6894;52.196;9.904;2022-12-18T03:18:39;10.93;;;6.13;;
13641;SDS011;6894;52.196;9.904;2022-12-18T03:21:09;12.40;;;6.60;;
13641;SDS011;6894;52.196;9.904;2022-12-18T03:23:40;9.00;;;5.53;;
13641;SDS011;6894;52.196;9.904;2022-12-18T03:26:10;11.37;;;6.37;;
13641;SDS011;6894;52.196;9.904;2022-12-18T03:28:42;8.47;;;5.80;;
13641;SDS011;6894;52.196;9.904;2022-12-18T03:31:14;10.63;;;5.90;;
13641;SDS011;6894;52.196;9.904;2022-12-18T03:33:42;7.43;;;4.97;;
13641;SDS011;6894;52.196;9.904;2022-12-18T03:36:13;8.97;;;5.40;;
13641;SDS011;6894;52.196;9.904;2022-12-18T03:38:40;10.13;;;5.70;;
13641;SDS011;6894;52.196;9.904;2022-12-18T03:41:09;8.37;;;5.63;;
13641;SDS011;6894;52.196;9.904;2022-12-18T03:43:42;7.77;;;5.63;;
13641;SDS011;6894;52.196;9.904;2022-12-18T03:46:20;9.80;;;5.77;;
13641;SDS011;6894;52.196;9.904;2022-12-18T03:48:52;8.97;;;5.70;;
13641;SDS011;6894;52.196;9.904;2022-12-18T03:51:26;9.43;;;5.27;;
13641;SDS011;6894;52.196;9.904;2022-12-18T03:54:01;9.67;;;6.00;;
13641;SDS011;6894;52.196;9.904;2022-12-18T03:56:31;8.80;;;5.63;;
13641;SDS011;6894;52.196;9.904;2022-12-18T03:59:01;9.30;;;5.00;;
13641;SDS011;6894;52.196;9.904;2022-12-18T04:01:32;9.03;;;4.97;;
13641;SDS011;6894;52.196;9.904;2022-12-18T04:04:02;8.23;;;5.13;;
13641;SDS011;6894;52.196;9.904;2022-12-18T04:06:30;9.53;;;5.00;;
13641;SDS011;6894;52.196;9.904;2022-12-18T04:09:01;9.17;;;5.30;;
13641;SDS011;6894;52.196;9.904;2022-12-18T04:11:28;8.93;;;5.17;;
13641;SDS011;6894;52.196;9.904;2022-12-18T04:13:55;9.47;;;5.47;;
13641;SDS011;6894;52.196;9.904;2022-12-18T04:16:23;10.13;;;5.60;;
13641;SDS011;6894;52.196;9.904;2022-12-18T04:18:51;9.83;;;5.53;;
13641;SDS011;6894;52.196;9.904;2022-12-18T04:21:18;8.80;;;5.97;;
13641;SDS011;6894;52.196;9.904;2022-12-18T04:23:44;11.63;;;5.47;;
13641;SDS011;6894;52.196;9.904;2022-12-18T04:26:11;8.80;;;4.90;;
13641;SDS011;6894;52.196;9.904;2022-12-18T04:28:38;7.77;;;5.63;;
13641;SDS011;6894;52.196;9.904;2022-12-18T04:31:05;8.93;;;5.43;;
13641;SDS011;6894;52.196;9.904;2022-12-18T04:33:31;11.43;;;5.73;;
13641;SDS011;6894;52.196;9.904;2022-12-18T04:35:59;9.23;;;5.57;;
13641;SDS011;6894;52.196;9.904;2022-12-18T04:38:26;8.00;;;5.23;;
13641;SDS011;6894;52.196;9.904;2022-12-18T04:40:53;9.37;;;5.63;;
13641;SDS011;6894;52.196;9.904;2022-12-18T04:43:20;8.00;;;5.53;;
13641;SDS011;6894;52.196;9.904;2022-12-18T04:45:46;8.33;;;5.40;;
13641;SDS011;6894;52.196;9.904;2022-12-18T04:48:13;8.13;;;5.20;;
13641;SDS011;6894;52.196;9.904;2022-12-18T04:50:40;11.93;;;5.53;;
13641;SDS011;6894;52.196;9.904;2022-12-18T04:53:08;9.70;;;5.93;;
13641;SDS011;6894;52.196;9.904;2022-12-18T04:55:35;8.37;;;5.20;;
13641;SDS011;6894;52.196;9.904;2022-12-18T04:58:02;8.20;;;5.47;;
13641;SDS011;6894;52.196;9.904;2022-12-18T05:00:28;5.13;;;3.57;;
13641;SDS011;6894;52.196;9.904;2022-12-18T05:02:55;7.00;;;4.77;;
13641;SDS011;6894;52.196;9.904;2022-12-18T05:05:22;8.07;;;4.57;;
13641;SDS011;6894;52.196;9.904;2022-12-18T05:07:48;8.57;;;4.33;;
13641;SDS011;6894;52.196;9.904;2022-12-18T05:10:17;8.57;;;4.83;;
13641;SDS011;6894;52.196;9.904;2022-12-18T05:12:43;10.30;;;5.57;;
13641;SDS011;6894;52.196;9.904;2022-12-18T05:15:24;7.20;;;4.53;;
13641;SDS011;6894;52.196;9.904;2022-12-18T05:17:52;8.90;;;5.63;;
13641;SDS011;6894;52.196;9.904;2022-12-18T05:20:19;9.00;;;5.03;;
13641;SDS011;6894;52.196;9.904;2022-12-18T05:22:45;8.10;;;5.20;;
13641;SDS011;6894;52.196;9.904;2022-12-18T05:25:12;7.03;;;5.20;;
13641;SDS011;6894;52.196;9.904;2022-12-18T05:27:40;7.87;;;5.00;;
13641;SDS011;6894;52.196;9.904;2022-12-18T05:30:08;9.90;;;4.70;;
13641;SDS011;6894;52.196;9.904;2022-12-18T05:32:35;6.87;;;4.73;;
13641;SDS011;6894;52.196;9.904;2022-12-18T05:35:03;7.70;;;4.60;;
13641;SDS011;6894;52.196;9.904;2022-12-18T05:37:31;8.70;;;4.93;;
13641;SDS011;6894;52.196;9.904;2022-12-18T05:39:58;8.20;;;4.70;;
13641;SDS011;6894;52.196;9.904;2022-12-18T05:42:25;7.87;;;4.47;;
13641;SDS011;6894;52.196;9.904;2022-12-18T05:44:53;6.83;;;4.30;;
13641;SDS011;6894;52.196;9.904;2022-12-18T05:47:20;6.63;;;4.90;;
13641;SDS011;6894;52.196;9.904;2022-12-18T05:49:47;6.90;;;4.77;;
13641;SDS011;6894;52.196;9.904;2022-12-18T05:52:13;8.53;;;3.97;;
13641;SDS011;6894;52.196;9.904;2022-12-18T05:54:40;5.77;;;4.03;;
13641;SDS011;6894;52.196;9.904;2022-12-18T05:57:07;9.20;;;4.00;;
13641;SDS011;6894;52.196;9.904;2022-12-18T05:59:34;5.63;;;4.33;;
13641;SDS011;6894;52.196;9.904;2022-12-18T06:02:02;4.67;;;3.47;;
13641;SDS011;6894;52.196;9.904;2022-12-18T06:04:29;8.40;;;4.27;;
13641;SDS011;6894;52.196;9.904;2022-12-18T06:06:55;5.63;;;4.43;;
13641;SDS011;6894;52.196;9.904;2022-12-18T06:09:22;8.87;;;4.10;;
13641;SDS011;6894;52.196;9.904;2022-12-18T06:11:50;8.03;;;3.83;;
13641;SDS011;6894;52.196;9.904;2022-12-18T06:14:18;7.00;;;4.37;;
13641;SDS011;6894;52.196;9.904;2022-12-18T06:16:44;7.10;;;4.70;;
13641;SDS011;6894;52.196;9.904;2022-12-18T06:19:14;7.27;;;4.20;;
13641;SDS011;6894;52.196;9.904;2022-12-18T06:21:42;7.13;;;4.33;;
13641;SDS011;6894;52.196;9.904;2022-12-18T06:24:09;6.43;;;3.43;;
13641;SDS011;6894;52.196;9.904;2022-12-18T06:26:37;9.60;;;4.47;;
13641;SDS011;6894;52.196;9.904;2022-12-18T06:29:04;10.73;;;4.83;;
13641;SDS011;6894;52.196;9.904;2022-12-18T06:31:31;6.23;;;4.43;;
13641;SDS011;6894;52.196;9.904;2022-12-18T06:33:58;5.40;;;3.90;;
13641;SDS011;6894;52.196;9.904;2022-12-18T06:36:26;8.83;;;5.33;;
13641;SDS011;6894;52.196;9.904;2022-12-18T06:38:56;13.27;;;5.97;;
13641;SDS011;6894;52.196;9.904;2022-12-18T06:41:23;9.73;;;5.07;;
13641;SDS011;6894;52.196;9.904;2022-12-18T06:43:50;8.00;;;4.63;;
13641;SDS011;6894;52.196;9.904;2022-12-18T06:46:17;8.20;;;5.50;;
13641;SDS011;6894;52.196;9.904;2022-12-18T06:48:46;7.93;;;4.67;;
13641;SDS011;6894;52.196;9.904;2022-12-18T06:51:15;7.97;;;4.30;;
13641;SDS011;6894;52.196;9.904;2022-12-18T06:53:44;9.50;;;4.93;;
13641;SDS011;6894;52.196;9.904;2022-12-18T06:56:11;8.80;;;6.13;;
13641;SDS011;6894;52.196;9.904;2022-12-18T06:58:37;7.23;;;5.33;;
13641;SDS011;6894;52.196;9.904;2022-12-18T07:01:05;8.00;;;5.37;;
13641;SDS011;6894;52.196;9.904;2022-12-18T07:03:33;9.43;;;4.60;;
13641;SDS011;6894;52.196;9.904;2022-12-18T07:06:00;10.73;;;5.40;;
13641;SDS011;6894;52.196;9.904;2022-12-18T07:08:28;8.97;;;5.27;;
13641;SDS011;6894;52.196;9.904;2022-12-18T07:10:57;7.43;;;4.27;;
13641;SDS011;6894;52.196;9.904;2022-12-18T07:13:23;5.77;;;4.13;;
13641;SDS011;6894;52.196;9.904;2022-12-18T07:15:51;8.77;;;4.10;;
13641;SDS011;6894;52.196;9.904;2022-12-18T07:18:18;7.20;;;3.90;;
13641;SDS011;6894;52.196;9.904;2022-12-18T07:20:45;9.43;;;4.63;;
13641;SDS011;6894;52.196;9.904;2022-12-18T07:23:11;9.43;;;4.70;;
13641;SDS011;6894;52.196;9.904;2022-12-18T07:25:38;5.97;;;4.50;;
13641;SDS011;6894;52.196;9.904;2022-12-18T07:28:06;9.47;;;4.40;;
13641;SDS011;6894;52.196;9.904;2022-12-18T07:30:33;5.73;;;4.37;;
13641;SDS011;6894;52.196;9.904;2022-12-18T07:33:02;6.87;;;4.73;;
13641;SDS011;6894;52.196;9.904;2022-12-18T07:35:29;7.30;;;4.07;;
13641;SDS011;6894;52.196;9.904;2022-12-18T07:37:56;6.93;;;3.97;;
13641;SDS011;6894;52.196;9.904;2022-12-18T07:40:23;10.27;;;4.20;;
13641;SDS011;6894;52.196;9.904;2022-12-18T07:42:49;8.03;;;4.23;;
13641;SDS011;6894;52.196;9.904;2022-12-18T07:45:18;6.30;;;4.33;;
13641;SDS011;6894;52.196;9.904;2022-12-18T07:47:44;6.63;;;3.33;;
13641;SDS011;6894;52.196;9.904;2022-12-18T07:50:11;5.83;;;4.03;;
13641;SDS011;6894;52.196;9.904;2022-12-18T07:52:38;7.67;;;4.47;;
13641;SDS011;6894;52.196;9.904;2022-12-18T07:55:05;5.43;;;3.77;;
13641;SDS011;6894;52.196;9.904;2022-12-18T07:57:32;9.43;;;4.30;;
13641;SDS011;6894;52.196;9.904;2022-12-18T07:59:59;6.90;;;4.47;;
13641;SDS011;6894;52.196;9.904;2022-12-18T08:02:27;7.60;;;3.70;;
13641;SDS011;6894;52.196;9.904;2022-12-18T08:04:56;6.37;;;4.13;;
13641;SDS011;6894;52.196;9.904;2022-12-18T08:07:24;5.20;;;3.30;;
13641;SDS011;6894;52.196;9.904;2022-12-18T08:09:50;8.57;;;4.53;;
13641;SDS011;6894;52.196;9.904;2022-12-18T08:12:17;8.13;;;4.70;;
13641;SDS011;6894;52.196;9.904;2022-12-18T08:14:44;6.57;;;4.33;;
13641;SDS011;6894;52.196;9.904;2022-12-18T08:17:10;6.23;;;4.17;;
13641;SDS011;6894;52.196;9.904;2022-12-18T08:19:38;9.33;;;4.30;;
13641;SDS011;6894;52.196;9.904;2022-12-18T08:22:05;7.27;;;4.33;;
13641;SDS011;6894;52.196;9.904;2022-12-18T08:24:32;8.70;;;4.93;;
13641;SDS011;6894;52.196;9.904;2022-12-18T08:26:59;6.13;;;3.83;;
13641;SDS011;6894;52.196;9.904;2022-12-18T08:29:25;6.63;;;4.47;;
13641;SDS011;6894;52.196;9.904;2022-12-18T08:31:52;8.17;;;4.27;;
13641;SDS011;6894;52.196;9.904;2022-12-18T08:34:19;12.77;;;3.90;;
13641;SDS011;6894;52.196;9.904;2022-12-18T08:36:47;5.33;;;4.07;;
13641;SDS011;6894;52.196;9.904;2022-12-18T08:39:14;6.17;;;3.53;;
13641;SDS011;6894;52.196;9.904;2022-12-18T08:41:41;6.20;;;3.63;;
13641;SDS011;6894;52.196;9.904;2022-12-18T08:44:28;5.50;;;3.10;;
13641;SDS011;6894;52.196;9.904;2022-12-18T08:47:02;7.37;;;3.87;;
13641;SDS011;6894;52.196;9.904;2022-12-18T08:49:29;5.83;;;3.30;;
13641;SDS011;6894;52.196;9.904;2022-12-18T08:51:57;7.10;;;3.17;;
13641;SDS011;6894;52.196;9.904;2022-12-18T08:54:25;7.87;;;3.80;;
13641;SDS011;6894;52.196;9.904;2022-12-18T08:56:52;9.17;;;5.97;;
13641;SDS011;6894;52.196;9.904;2022-12-18T08:59:19;5.23;;;3.30;;
13641;SDS011;6894;52.196;9.904;2022-12-18T09:01:46;3.33;;;2.70;;
13641;SDS011;6894;52.196;9.904;2022-12-18T09:04:13;8.50;;;2.97;;
13641;SDS011;6894;52.196;9.904;2022-12-18T09:06:40;4.67;;;2.80;;
13641;SDS011;6894;52.196;9.904;2022-12-18T09:09:09;4.90;;;2.70;;
13641;SDS011;6894;52.196;9.904;2022-12-18T09:11:36;4.60;;;2.70;;
13641;SDS011;6894;52.196;9.904;2022-12-18T09:14:03;4.07;;;2.33;;
13641;SDS011;6894;52.196;9.904;2022-12-18T09:16:30;3.47;;;2.60;;
13641;SDS011;6894;52.196;9.904;2022-12-18T09:18:59;6.20;;;3.30;;
13641;SDS011;6894;52.196;9.904;2022-12-18T09:21:28;5.43;;;2.97;;
13641;SDS011;6894;52.196;9.904;2022-12-18T09:23:56;3.43;;;2.33;;
13641;SDS011;6894;52.196;9.904;2022-12-18T09:26:25;6.97;;;3.70;;
13641;SDS011;6894;52.196;9.904;2022-12-18T09:28:52;5.40;;;3.80;;
13641;SDS011;6894;52.196;9.904;2022-12-18T09:31:20;6.60;;;4.47;;
13641;SDS011;6894;52.196;9.904;2022-12-18T09:33:47;4.10;;;3.50;;
13641;SDS011;6894;52.196;9.904;2022-12-18T09:36:15;9.07;;;5.00;;
13641;SDS011;6894;52.196;9.904;2022-12-18T09:38:43;5.27;;;3.63;;
13641;SDS011;6894;52.196;9.904;2022-12-18T09:41:15;4.83;;;2.90;;
13641;SDS011;6894;52.196;9.904;2022-12-18T09:44:00;5.23;;;4.00;;
13641;SDS011;6894;52.196;9.904;2022-12-18T09:46:32;6.20;;;2.83;;
13641;SDS011;6894;52.196;9.904;2022-12-18T09:49:05;5.80;;;3.10;;
13641;SDS011;6894;52.196;9.904;2022-12-18T09:51:39;3.00;;;1.73;;
13641;SDS011;6894;52.196;9.904;2022-12-18T09:54:11;5.53;;;3.10;;
13641;SDS011;6894;52.196;9.904;2022-12-18T09:56:42;23.53;;;11.13;;
13641;SDS011;6894;52.196;9.904;2022-12-18T09:59:14;6.13;;;3.43;;
13641;SDS011;6894;52.196;9.904;2022-12-18T10:01:45;6.73;;;3.53;;
13641;SDS011;6894;52.196;9.904;2022-12-18T10:04:12;3.13;;;1.90;;
13641;SDS011;6894;52.196;9.904;2022-12-18T10:06:39;6.43;;;4.03;;
13641;SDS011;6894;52.196;9.904;2022-12-18T10:09:14;4.00;;;3.03;;
13641;SDS011;6894;52.196;9.904;2022-12-18T10:11:51;4.83;;;2.90;;
13641;SDS011;6894;52.196;9.904;2022-12-18T10:14:27;4.73;;;2.70;;
13641;SDS011;6894;52.196;9.904;2022-12-18T10:17:02;3.27;;;2.57;;
13641;SDS011;6894;52.196;9.904;2022-12-18T10:19:36;2.47;;;1.60;;
13641;SDS011;6894;52.196;9.904;2022-12-18T10:22:10;4.17;;;1.93;;
13641;SDS011;6894;52.196;9.904;2022-12-18T10:24:45;2.33;;;1.40;;
13641;SDS011;6894;52.196;9.904;2022-12-18T10:27:22;3.50;;;1.57;;
13641;SDS011;6894;52.196;9.904;2022-12-18T10:29:50;1.70;;;1.10;;
13641;SDS011;6894;52.196;9.904;2022-12-18T10:32:18;2.37;;;1.63;;
13641;SDS011;6894;52.196;9.904;2022-12-18T10:34:47;1.70;;;1.60;;
13641;SDS011;6894;52.196;9.904;2022-12-18T10:37:15;3.07;;;2.00;;
13641;SDS011;6894;52.196;9.904;2022-12-18T10:39:44;2.03;;;1.83;;
13641;SDS011;6894;52.196;9.904;2022-12-18T10:42:14;5.17;;;3.40;;
13641;SDS011;6894;52.196;9.904;2022-12-18T10:44:45;2.67;;;2.00;;
13641;SDS011;6894;52.196;9.904;2022-12-18T10:47:12;5.83;;;3.13;;
13641;SDS011;6894;52.196;9.904;2022-12-18T10:49:42;2.40;;;2.10;;
13641;SDS011;6894;52.196;9.904;2022-12-18T10:52:15;6.17;;;3.03;;
13641;SDS011;6894;52.196;9.904;2022-12-18T10:54:48;2.90;;;1.90;;
13641;SDS011;6894;52.196;9.904;2022-12-18T10:57:17;3.27;;;2.40;;
13641;SDS011;6894;52.196;9.904;2022-12-18T10:59:58;1.53;;;1.20;;
13641;SDS011;6894;52.196;9.904;2022-12-18T11:02:28;2.23;;;1.80;;
13641;SDS011;6894;52.196;9.904;2022-12-18T11:05:00;2.57;;;1.30;;
13641;SDS011;6894;52.196;9.904;2022-12-18T11:07:40;2.40;;;1.60;;
13641;SDS011;6894;52.196;9.904;2022-12-18T11:10:15;5.27;;;1.90;;
13641;SDS011;6894;52.196;9.904;2022-12-18T11:12:43;2.40;;;1.50;;
13641;SDS011;6894;52.196;9.904;2022-12-18T11:15:15;2.33;;;1.70;;
13641;SDS011;6894;52.196;9.904;2022-12-18T11:17:45;2.30;;;1.73;;
13641;SDS011;6894;52.196;9.904;2022-12-18T11:20:19;1.97;;;1.67;;
13641;SDS011;6894;52.196;9.904;2022-12-18T11:22:54;2.60;;;1.73;;
13641;SDS011;6894;52.196;9.904;2022-12-18T11:25:23;2.20;;;1.40;;
13641;SDS011;6894;52.196;9.904;2022-12-18T11:27:50;1.83;;;1.60;;
13641;SDS011;6894;52.196;9.904;2022-12-18T11:30:24;3.10;;;1.70;;
13641;SDS011;6894;52.196;9.904;2022-12-18T11:32:54;4.37;;;2.00;;
13641;SDS011;6894;52.196;9.904;2022-12-18T11:35:28;2.40;;;1.30;;
13641;SDS011;6894;52.196;9.904;2022-12-18T11:38:17;3.47;;;1.50;;
13641;SDS011;6894;52.196;9.904;2022-12-18T11:40:50;4.10;;;1.87;;
13641;SDS011;6894;52.196;9.904;2022-12-18T11:43:25;2.93;;;2.10;;
13641;SDS011;6894;52.196;9.904;2022-12-18T11:45:55;2.30;;;1.50;;
13641;SDS011;6894;52.196;9.904;2022-12-18T11:48:27;2.10;;;1.70;;
13641;SDS011;6894;52.196;9.904;2022-12-18T11:50:59;2.40;;;1.53;;
13641;SDS011;6894;52.196;9.904;2022-12-18T11:53:29;2.87;;;1.83;;
13641;SDS011;6894;52.196;9.904;2022-12-18T11:56:00;3.20;;;1.80;;
13641;SDS011;6894;52.196;9.904;2022-12-18T11:58:42;2.80;;;2.00;;
13641;SDS011;6894;52.196;9.904;2022-12-18T12:01:17;3.17;;;1.80;;
13641;SDS011;6894;52.196;9.904;2022-12-18T12:06:53;2.63;;;1.73;;
13641;SDS011;6894;52.196;9.904;2022-12-18T12:09:30;2.67;;;2.10;;
13641;SDS011;6894;52.196;9.904;2022-12-18T12:12:08;4.10;;;2.13;;
13641;SDS011;6894;52.196;9.904;2022-12-18T12:14:46;2.77;;;1.93;;
13641;SDS011;6894;52.196;9.904;2022-12-18T12:17:22;3.20;;;1.97;;
13641;SDS011;6894;52.196;9.904;2022-12-18T12:19:56;4.53;;;2.47;;
13641;SDS011;6894;52.196;9.904;2022-12-18T12:22:30;2.70;;;1.50;;
13641;SDS011;6894;52.196;9.904;2022-12-18T12:25:07;3.50;;;1.77;;
13641;SDS011;6894;52.196;9.904;2022-12-18T12:27:53;2.03;;;1.80;;
13641;SDS011;6894;52.196;9.904;2022-12-18T12:30:32;3.57;;;2.03;;
13641;SDS011;6894;52.196;9.904;2022-12-18T12:33:09;2.87;;;1.60;;
13641;SDS011;6894;52.196;9.904;2022-12-18T12:35:45;2.50;;;1.87;;
13641;SDS011;6894;52.196;9.904;2022-12-18T12:38:18;4.17;;;2.00;;
13641;SDS011;6894;52.196;9.904;2022-12-18T12:40:49;3.73;;;2.00;;
13641;SDS011;6894;52.196;9.904;2022-12-18T12:43:21;3.00;;;1.97;;
13641;SDS011;6894;52.196;9.904;2022-12-18T12:45:57;6.43;;;2.77;;
13641;SDS011;6894;52.196;9.904;2022-12-18T12:48:37;3.07;;;2.40;;
13641;SDS011;6894;52.196;9.904;2022-12-18T12:51:11;4.80;;;3.00;;
13641;SDS011;6894;52.196;9.904;2022-12-18T12:53:42;3.13;;;2.50;;
13641;SDS011;6894;52.196;9.904;2022-12-18T12:56:09;7.30;;;3.27;;
13641;SDS011;6894;52.196;9.904;2022-12-18T12:58:41;4.20;;;3.40;;
13641;SDS011;6894;52.196;9.904;2022-12-18T13:01:18;9.70;;;4.23;;
13641;SDS011;6894;52.196;9.904;2022-12-18T13:04:01;4.40;;;3.70;;
13641;SDS011;6894;52.196;9.904;2022-12-18T13:06:37;8.37;;;4.87;;
13641;SDS011;6894;52.196;9.904;2022-12-18T13:09:12;5.30;;;4.17;;
13641;SDS011;6894;52.196;9.904;2022-12-18T13:11:39;8.90;;;6.27;;
13641;SDS011;6894;52.196;9.904;2022-12-18T13:14:29;7.60;;;5.83;;
13641;SDS011;6894;52.196;9.904;2022-12-18T13:17:14;8.93;;;7.13;;
13641;SDS011;6894;52.196;9.904;2022-12-18T13:19:44;9.80;;;7.07;;
13641;SDS011;6894;52.196;9.904;2022-12-18T13:22:21;18.37;;;8.10;;
13641;SDS011;6894;52.196;9.904;2022-12-18T13:24:49;9.87;;;6.70;;
13641;SDS011;6894;52.196;9.904;2022-12-18T13:30:45;11.97;;;8.17;;
13641;SDS011;6894;52.196;9.904;2022-12-18T13:33:37;13.90;;;8.43;;
13641;SDS011;6894;52.196;9.904;2022-12-18T13:36:29;9.87;;;6.87;;
13641;SDS011;6894;52.196;9.904;2022-12-18T13:48:14;12.47;;;7.27;;
13641;SDS011;6894;52.196;9.904;2022-12-18T13:50:43;13.77;;;8.10;;
13641;SDS011;6894;52.196;9.904;2022-12-18T13:53:18;12.47;;;8.20;;
13641;SDS011;6894;52.196;9.904;2022-12-18T13:55:48;14.33;;;8.93;;
13641;SDS011;6894;52.196;9.904;2022-12-18T13:58:16;13.47;;;8.50;;
13641;SDS011;6894;52.196;9.904;2022-12-18T14:00:43;14.50;;;9.07;;
13641;SDS011;6894;52.196;9.904;2022-12-18T14:03:21;12.53;;;8.17;;
13641;SDS011;6894;52.196;9.904;2022-12-18T14:05:54;11.93;;;8.90;;
13641;SDS011;6894;52.196;9.904;2022-12-18T14:08:26;14.07;;;9.63;;
13641;SDS011;6894;52.196;9.904;2022-12-18T14:10:58;14.23;;;9.30;;
13641;SDS011;6894;52.196;9.904;2022-12-18T14:13:28;13.47;;;8.70;;
13641;SDS011;6894;52.196;9.904;2022-12-18T14:15:56;13.90;;;8.67;;
13641;SDS011;6894;52.196;9.904;2022-12-18T14:18:26;14.23;;;8.97;;
13641;SDS011;6894;52.196;9.904;2022-12-18T14:20:59;15.13;;;9.07;;
13641;SDS011;6894;52.196;9.904;2022-12-18T14:23:35;15.73;;;10.50;;
13641;SDS011;6894;52.196;9.904;2022-12-18T14:26:17;14.93;;;10.63;;
13641;SDS011;6894;52.196;9.904;2022-12-18T14:28:47;13.47;;;9.07;;
13641;SDS011;6894;52.196;9.904;2022-12-18T14:31:17;12.97;;;9.07;;
13641;SDS011;6894;52.196;9.904;2022-12-18T14:33:45;14.20;;;9.43;;
13641;SDS011;6894;52.196;9.904;2022-12-18T14:36:14;20.13;;;13.53;;
13641;SDS011;6894;52.196;9.904;2022-12-18T14:38:47;13.10;;;9.37;;
13641;SDS011;6894;52.196;9.904;2022-12-18T14:41:16;15.33;;;10.17;;
13641;SDS011;6894;52.196;9.904;2022-12-18T14:43:46;20.87;;;13.13;;
13641;SDS011;6894;52.196;9.904;2022-12-18T14:46:33;19.30;;;13.63;;
13641;SDS011;6894;52.196;9.904;2022-12-18T14:49:02;21.33;;;15.03;;
13641;SDS011;6894;52.196;9.904;2022-12-18T14:51:31;124.57;;;45.63;;
13641;SDS011;6894;52.196;9.904;2022-12-18T14:54:01;98.07;;;38.57;;
13641;SDS011;6894;52.196;9.904;2022-12-18T14:56:30;35.83;;;17.60;;
13641;SDS011;6894;52.196;9.904;2022-12-18T14:59:00;21.50;;;13.30;;
13641;SDS011;6894;52.196;9.904;2022-12-18T15:01:29;18.57;;;12.80;;
13641;SDS011;6894;52.196;9.904;2022-12-18T15:03:59;23.37;;;13.33;;
13641;SDS011;6894;52.196;9.904;2022-12-18T15:06:31;29.87;;;16.30;;
13641;SDS011;6894;52.196;9.904;2022-12-18T15:09:02;31.10;;;15.93;;
13641;SDS011;6894;52.196;9.904;2022-12-18T15:11:35;13.20;;;9.23;;
13641;SDS011;6894;52.196;9.904;2022-12-18T15:17:02;13.33;;;8.93;;
13641;SDS011;6894;52.196;9.904;2022-12-18T15:19:33;11.57;;;8.27;;
13641;SDS011;6894;52.196;9.904;2022-12-18T15:22:03;16.43;;;8.30;;
13641;SDS011;6894;52.196;9.904;2022-12-18T15:24:31;10.57;;;8.87;;
13641;SDS011;6894;52.196;9.904;2022-12-18T15:26:59;14.33;;;8.57;;
13641;SDS011;6894;52.196;9.904;2022-12-18T15:29:31;13.20;;;9.20;;
13641;SDS011;6894;52.196;9.904;2022-12-18T15:31:58;16.60;;;8.87;;
13641;SDS011;6894;52.196;9.904;2022-12-18T15:34:26;15.03;;;9.73;;